Flight Track Log - Related Links

Times and Time Zones

All times are in EDT time to prevent confusion due to time zone crossing. See the N321FU flight status page for this flight to view local times or setup timezone preferences in your user account.

Time Position Orientation Groundspeed Altitude Reporting Facility
EDT Latitude Longitude Course Direction KTS MPH feet Rate Location/Type
Fri 07:48:56 PM 27.0142 -81.9644 354° North 133 153 3,500  Level Miami Center
Fri 07:49:56 PM 27.0514 -81.9733 348° North 143 165 4,000 600 Climbing Miami Center
Fri 07:50:56 PM 27.0950 -81.9822 350° North 148 170 4,700 750 Climbing Miami Center
Fri 07:51:56 PM 27.1372 -81.9700 14° North 148 170 5,500 600 Climbing Miami Center
Fri 07:52:56 PM 27.1792 -81.9625 North 143 165 5,900 250 Climbing Miami Center
Fri 07:53:00 PM 27.1787 -81.8976 10° North  Level FlightAware Approximate
Fri 07:53:56 PM 27.2275 -81.9506 12° North 156 180 6,000  Level Miami Center
Fri 07:54:56 PM 27.2803 -81.9367 13° North 177 204 6,000  Level Miami Center
Fri 07:55:56 PM 27.3350 -81.9250 11° North 188 216 6,000  Level Miami Center
Fri 07:56:56 PM 27.3875 -81.9086 15° North 188 216 6,000  Level Miami Center
Fri 07:57:56 PM 27.4403 -81.8922 15° North 188 216 6,000  Level Miami Center
Fri 07:58:56 PM 27.4931 -81.8758 15° North 188 216 6,000  Level Miami Center
Fri 07:59:56 PM 27.5522 -81.8572 16° North 188 216 6,000  Level Miami Center
Fri 08:00:56 PM 27.6050 -81.8408 15° North 188 216 6,000  Level Miami Center
Fri 08:01:56 PM 27.6514 -81.8264 15° North 188 216 6,000  Level Miami Center
Fri 08:02:56 PM 27.7061 -81.8125 13° North 188 216 6,000  Level Miami Center
Fri 08:04:35 PM 27.8000 -81.7833 15° North 202 232 6,000  Level Orlando TRACON
Fri 08:05:34 PM 27.8500 -81.7667 16° North 202 232 6,000  Level Orlando TRACON
Fri 08:06:34 PM 27.9167 -81.7500 12° North 202 232 6,000  Level Orlando TRACON
Fri 08:07:29 PM 27.9667 -81.7333 16° North 201 231 6,000  Level Orlando TRACON
Fri 08:08:29 PM 28.0167 -81.7167 16° North 203 234 6,000  Level Orlando TRACON
Fri 08:09:29 PM 28.0667 -81.7000 16° North 204 235 6,000  Level Orlando TRACON
Fri 08:10:29 PM 28.1167 -81.6833 16° North 202 232 6,000 -400 Level Orlando TRACON
Fri 08:11:29 PM 28.1833 -81.6667 12° North 210 242 5,200 -476 Descending Orlando TRACON
Fri 08:12:35 PM 28.2500 -81.6500 12° North 217 250 5,000 -143 Descending Orlando TRACON
Fri 08:13:35 PM 28.3000 -81.6333 16° North 196 226 4,900 -53 Descending Orlando TRACON
Fri 08:14:29 PM 28.3500 -81.6167 16° North 195 224 4,900  Level Orlando TRACON
Fri 08:15:29 PM 28.4000 -81.6000 16° North 194 223 4,900  Level Orlando TRACON
Fri 08:16:29 PM 28.4500 -81.5833 16° North 191 220 4,900  Level Orlando TRACON
Fri 08:17:29 PM 28.5000 -81.5667 16° North 193 222 4,900  Level Orlando TRACON
Fri 08:18:29 PM 28.5500 -81.5500 16° North 194 223 4,900  Level Orlando TRACON
Fri 08:19:29 PM 28.6000 -81.5333 16° North 197 227 4,900 -350 Level Orlando TRACON
Fri 08:20:29 PM 28.6667 -81.5333 360° North 200 230 4,200 -600 Descending Orlando TRACON
Fri 08:21:29 PM 28.7167 -81.5000 30° Northeast 208 239 3,700 -500 Descending Orlando TRACON
Fri 08:22:29 PM 28.7500 -81.4500 53° Northeast 188 216 3,200 -400 Descending Orlando TRACON
Fri 08:23:29 PM 28.7833 -81.4167 41° Northeast 184 212 2,900 -65 Descending Orlando TRACON
Fri 08:25:35 PM 28.8519 -81.3303 48° Northeast 174 200 3,000 74 Climbing Jacksonville Center
Fri 08:26:11 PM 28.8706 -81.3042 51° Northeast 174 200 3,100 52 Climbing Jacksonville Center
Fri 08:27:30 PM 28.9136 -81.2511 47° Northeast 177 204 3,100 -90 Level Jacksonville Center
Fri 08:28:25 PM 28.9444 -81.2150 46° Northeast 177 204 2,900 -522 Descending Jacksonville Center
Fri 08:29:25 PM 28.9836 -81.1717 44° Northeast 187 215 2,100 -645 Descending Jacksonville Center
Fri 08:30:26 PM 29.0186 -81.1283 47° Northeast 173 199 1,600 -492 Descending Jacksonville Center
Fri 08:32:00 PM 29.0583 -81.0499 60° Northeast  Level FlightAware Approximate
Fri 08:39:00 PM 29.0667 -81.0333 41° Northeast  Level FlightAware Approximate
Fri 08:40:00 PM 29.0802 -81.0466 319° Northwest  Level Estimated
Fri 08:41:00 PM 29.0802 -81.0466 North  Level Estimated

Login

Don't have an account? Register now (free) for customized features, flight alerts, and more!